Ocean Grove, New Jersey
Current Conditions -  °F | °C
As of 11:15 PM on Friday 19 Dec 2014 (Local Time) from KBLM Reporting Station
Broken Clouds Broken Clouds  
Wind Chill: 23°   Ceiling: 3000
Heat Index: 30°   Visibility: 10mi
Dew Point: 18°   Wind: 7mph
Humidity: 60%   Direction: 300°WNW
Pressure: 30.19"   Gusts: NA
Location:  40.21°N, 74.01°W
Report Text: KBLM 200415Z AUTO 30006KT 10SM BKN030 M01/M08 A3019 RMK AO1
Loading
Personal Weather Stations






























Interactive Weather Map New forecast layout! Learn more

10-Day Weather Forecast

Advertisements
Track Severe Weather on mobile